sensor_id;sensor_type;location;lat;lon;timestamp;temperature;humidity
10282;DHT22;5186;59.472;18.048;2023-05-18T00:01:38;5.90;99.90
10282;DHT22;5186;59.472;18.048;2023-05-18T00:04:06;5.80;99.90
10282;DHT22;5186;59.472;18.048;2023-05-18T00:06:32;5.80;99.90
10282;DHT22;5186;59.472;18.048;2023-05-18T00:08:58;5.80;99.90
10282;DHT22;5186;59.472;18.048;2023-05-18T00:11:23;5.70;99.90
10282;DHT22;5186;59.472;18.048;2023-05-18T00:13:49;5.60;99.90
10282;DHT22;5186;59.472;18.048;2023-05-18T00:16:15;5.60;99.90
10282;DHT22;5186;59.472;18.048;2023-05-18T00:18:40;5.60;99.90
10282;DHT22;5186;59.472;18.048;2023-05-18T00:21:06;5.50;99.90
10282;DHT22;5186;59.472;18.048;2023-05-18T00:23:33;5.60;99.90
10282;DHT22;5186;59.472;18.048;2023-05-18T00:26:00;5.60;99.90
10282;DHT22;5186;59.472;18.048;2023-05-18T00:28:26;5.60;99.90
10282;DHT22;5186;59.472;18.048;2023-05-18T00:30:52;5.60;99.90
10282;DHT22;5186;59.472;18.048;2023-05-18T00:33:18;5.60;99.90
10282;DHT22;5186;59.472;18.048;2023-05-18T00:35:44;5.60;99.90
10282;DHT22;5186;59.472;18.048;2023-05-18T00:38:10;5.70;99.90
10282;DHT22;5186;59.472;18.048;2023-05-18T00:40:37;5.70;99.90
10282;DHT22;5186;59.472;18.048;2023-05-18T00:43:03;5.70;99.90
10282;DHT22;5186;59.472;18.048;2023-05-18T00:45:29;5.70;99.90
10282;DHT22;5186;59.472;18.048;2023-05-18T00:47:54;5.70;99.90
10282;DHT22;5186;59.472;18.048;2023-05-18T00:50:20;5.70;99.90
10282;DHT22;5186;59.472;18.048;2023-05-18T00:52:46;5.60;99.90
10282;DHT22;5186;59.472;18.048;2023-05-18T00:55:12;5.60;99.90
10282;DHT22;5186;59.472;18.048;2023-05-18T00:57:39;5.50;99.90
10282;DHT22;5186;59.472;18.048;2023-05-18T01:00:09;5.50;99.90
10282;DHT22;5186;59.472;18.048;2023-05-18T01:02:41;5.50;99.90
10282;DHT22;5186;59.472;18.048;2023-05-18T01:05:10;5.50;99.90
10282;DHT22;5186;59.472;18.048;2023-05-18T01:07:40;5.40;99.90
10282;DHT22;5186;59.472;18.048;2023-05-18T01:10:10;5.40;99.90
10282;DHT22;5186;59.472;18.048;2023-05-18T01:15:17;5.40;99.90
10282;DHT22;5186;59.472;18.048;2023-05-18T01:20:48;5.30;99.90
10282;DHT22;5186;59.472;18.048;2023-05-18T01:23:44;5.30;99.90
10282;DHT22;5186;59.472;18.048;2023-05-18T01:26:24;5.20;99.90
10282;DHT22;5186;59.472;18.048;2023-05-18T01:28:55;5.20;99.90
10282;DHT22;5186;59.472;18.048;2023-05-18T01:31:22;5.20;99.90
10282;DHT22;5186;59.472;18.048;2023-05-18T01:33:48;5.10;99.90
10282;DHT22;5186;59.472;18.048;2023-05-18T01:36:14;5.10;99.90
10282;DHT22;5186;59.472;18.048;2023-05-18T01:38:41;5.10;99.90
10282;DHT22;5186;59.472;18.048;2023-05-18T01:44:00;5.00;99.90
10282;DHT22;5186;59.472;18.048;2023-05-18T01:46:45;5.00;99.90
10282;DHT22;5186;59.472;18.048;2023-05-18T01:51:53;4.80;99.90
10282;DHT22;5186;59.472;18.048;2023-05-18T01:54:21;4.80;99.90
10282;DHT22;5186;59.472;18.048;2023-05-18T01:56:49;4.70;99.90
10282;DHT22;5186;59.472;18.048;2023-05-18T01:59:16;4.70;99.90
10282;DHT22;5186;59.472;18.048;2023-05-18T02:01:42;4.70;99.90
10282;DHT22;5186;59.472;18.048;2023-05-18T02:04:09;4.70;99.90
10282;DHT22;5186;59.472;18.048;2023-05-18T02:06:35;4.60;99.90
10282;DHT22;5186;59.472;18.048;2023-05-18T02:09:05;4.60;99.90
10282;DHT22;5186;59.472;18.048;2023-05-18T02:11:31;4.60;99.90
10282;DHT22;5186;59.472;18.048;2023-05-18T02:13:56;4.50;99.90
10282;DHT22;5186;59.472;18.048;2023-05-18T02:16:22;4.50;99.90
10282;DHT22;5186;59.472;18.048;2023-05-18T02:18:48;4.50;99.90
10282;DHT22;5186;59.472;18.048;2023-05-18T02:21:14;4.40;99.90
10282;DHT22;5186;59.472;18.048;2023-05-18T02:23:40;4.40;99.90
10282;DHT22;5186;59.472;18.048;2023-05-18T02:26:06;4.30;99.90
10282;DHT22;5186;59.472;18.048;2023-05-18T02:28:31;4.30;99.90
10282;DHT22;5186;59.472;18.048;2023-05-18T02:31:23;4.30;99.90
10282;DHT22;5186;59.472;18.048;2023-05-18T02:33:49;4.20;99.90
10282;DHT22;5186;59.472;18.048;2023-05-18T02:36:14;4.20;99.90
10282;DHT22;5186;59.472;18.048;2023-05-18T02:38:43;4.10;99.90
10282;DHT22;5186;59.472;18.048;2023-05-18T02:41:09;4.10;99.90
10282;DHT22;5186;59.472;18.048;2023-05-18T02:43:35;4.10;99.90
10282;DHT22;5186;59.472;18.048;2023-05-18T02:46:01;4.10;99.90
10282;DHT22;5186;59.472;18.048;2023-05-18T02:48:27;4.00;99.90
10282;DHT22;5186;59.472;18.048;2023-05-18T02:50:52;4.00;99.90
10282;DHT22;5186;59.472;18.048;2023-05-18T02:53:19;4.10;99.90
10282;DHT22;5186;59.472;18.048;2023-05-18T02:55:45;4.10;99.90
10282;DHT22;5186;59.472;18.048;2023-05-18T02:58:11;4.20;99.90
10282;DHT22;5186;59.472;18.048;2023-05-18T03:00:40;4.20;99.90
10282;DHT22;5186;59.472;18.048;2023-05-18T03:03:07;4.20;99.90
10282;DHT22;5186;59.472;18.048;2023-05-18T03:05:38;4.30;99.90
10282;DHT22;5186;59.472;18.048;2023-05-18T03:08:04;4.30;99.90
10282;DHT22;5186;59.472;18.048;2023-05-18T03:10:29;4.30;99.90
10282;DHT22;5186;59.472;18.048;2023-05-18T03:12:55;4.40;99.90
10282;DHT22;5186;59.472;18.048;2023-05-18T03:15:20;4.40;99.90
10282;DHT22;5186;59.472;18.048;2023-05-18T03:17:46;4.50;99.90
10282;DHT22;5186;59.472;18.048;2023-05-18T03:20:11;4.50;99.90
10282;DHT22;5186;59.472;18.048;2023-05-18T03:22:39;4.50;99.90
10282;DHT22;5186;59.472;18.048;2023-05-18T03:25:06;4.50;99.90
10282;DHT22;5186;59.472;18.048;2023-05-18T03:27:32;4.50;99.90
10282;DHT22;5186;59.472;18.048;2023-05-18T03:29:58;4.60;99.90
10282;DHT22;5186;59.472;18.048;2023-05-18T03:32:24;4.60;99.90
10282;DHT22;5186;59.472;18.048;2023-05-18T03:34:53;4.60;99.90
10282;DHT22;5186;59.472;18.048;2023-05-18T03:37:18;4.70;99.90
10282;DHT22;5186;59.472;18.048;2023-05-18T03:39:44;4.70;99.90
10282;DHT22;5186;59.472;18.048;2023-05-18T03:42:09;4.80;99.90
10282;DHT22;5186;59.472;18.048;2023-05-18T03:44:35;4.80;99.90
10282;DHT22;5186;59.472;18.048;2023-05-18T03:47:01;4.90;99.90
10282;DHT22;5186;59.472;18.048;2023-05-18T03:49:26;4.90;99.90
10282;DHT22;5186;59.472;18.048;2023-05-18T03:51:54;5.00;99.90
10282;DHT22;5186;59.472;18.048;2023-05-18T03:54:21;5.00;99.90
10282;DHT22;5186;59.472;18.048;2023-05-18T03:56:46;5.00;99.90
10282;DHT22;5186;59.472;18.048;2023-05-18T03:59:12;5.10;99.90
10282;DHT22;5186;59.472;18.048;2023-05-18T04:01:38;5.10;99.90
10282;DHT22;5186;59.472;18.048;2023-05-18T04:04:09;5.20;99.90
10282;DHT22;5186;59.472;18.048;2023-05-18T04:06:43;5.20;99.90
10282;DHT22;5186;59.472;18.048;2023-05-18T04:09:11;5.30;99.90
10282;DHT22;5186;59.472;18.048;2023-05-18T04:11:39;5.30;99.90
10282;DHT22;5186;59.472;18.048;2023-05-18T04:14:04;5.40;99.90
10282;DHT22;5186;59.472;18.048;2023-05-18T04:16:33;5.50;99.90
10282;DHT22;5186;59.472;18.048;2023-05-18T04:18:58;5.50;99.90
10282;DHT22;5186;59.472;18.048;2023-05-18T04:21:24;5.60;99.90
10282;DHT22;5186;59.472;18.048;2023-05-18T04:23:50;5.70;99.90
10282;DHT22;5186;59.472;18.048;2023-05-18T04:26:16;5.70;99.90
10282;DHT22;5186;59.472;18.048;2023-05-18T04:28:44;5.80;99.90
10282;DHT22;5186;59.472;18.048;2023-05-18T04:31:11;5.80;99.90
10282;DHT22;5186;59.472;18.048;2023-05-18T04:33:39;5.90;99.90
10282;DHT22;5186;59.472;18.048;2023-05-18T04:36:05;5.90;99.90
10282;DHT22;5186;59.472;18.048;2023-05-18T04:38:34;5.90;99.90
10282;DHT22;5186;59.472;18.048;2023-05-18T04:41:00;6.00;99.90
10282;DHT22;5186;59.472;18.048;2023-05-18T04:43:29;6.00;99.90
10282;DHT22;5186;59.472;18.048;2023-05-18T04:45:55;6.10;99.90
10282;DHT22;5186;59.472;18.048;2023-05-18T04:48:23;6.20;99.90
10282;DHT22;5186;59.472;18.048;2023-05-18T04:50:50;6.20;99.90
10282;DHT22;5186;59.472;18.048;2023-05-18T04:53:19;6.20;99.90
10282;DHT22;5186;59.472;18.048;2023-05-18T04:55:48;6.30;99.90
10282;DHT22;5186;59.472;18.048;2023-05-18T04:58:14;6.40;99.90
10282;DHT22;5186;59.472;18.048;2023-05-18T05:00:41;6.40;99.90
10282;DHT22;5186;59.472;18.048;2023-05-18T05:03:07;6.40;99.90
10282;DHT22;5186;59.472;18.048;2023-05-18T05:05:33;6.50;99.90
10282;DHT22;5186;59.472;18.048;2023-05-18T05:07:59;6.50;99.90
10282;DHT22;5186;59.472;18.048;2023-05-18T05:10:25;6.60;99.90
10282;DHT22;5186;59.472;18.048;2023-05-18T05:12:52;6.70;99.90
10282;DHT22;5186;59.472;18.048;2023-05-18T05:15:19;6.80;99.90
10282;DHT22;5186;59.472;18.048;2023-05-18T05:17:48;6.80;99.90
10282;DHT22;5186;59.472;18.048;2023-05-18T05:20:14;6.90;99.90
10282;DHT22;5186;59.472;18.048;2023-05-18T05:22:40;6.90;99.90
10282;DHT22;5186;59.472;18.048;2023-05-18T05:25:06;7.00;99.90
10282;DHT22;5186;59.472;18.048;2023-05-18T05:27:32;7.10;99.90
10282;DHT22;5186;59.472;18.048;2023-05-18T05:29:58;7.20;99.90
10282;DHT22;5186;59.472;18.048;2023-05-18T05:32:23;7.30;99.90
10282;DHT22;5186;59.472;18.048;2023-05-18T05:34:49;7.40;99.90
10282;DHT22;5186;59.472;18.048;2023-05-18T05:37:17;7.40;99.90
10282;DHT22;5186;59.472;18.048;2023-05-18T05:39:43;7.40;99.90
10282;DHT22;5186;59.472;18.048;2023-05-18T05:42:09;7.40;99.90
10282;DHT22;5186;59.472;18.048;2023-05-18T05:44:35;7.50;99.90
10282;DHT22;5186;59.472;18.048;2023-05-18T05:47:01;7.50;99.90
10282;DHT22;5186;59.472;18.048;2023-05-18T05:49:26;7.60;99.90
10282;DHT22;5186;59.472;18.048;2023-05-18T05:51:52;7.70;99.90
10282;DHT22;5186;59.472;18.048;2023-05-18T05:54:18;7.80;99.90
10282;DHT22;5186;59.472;18.048;2023-05-18T05:56:43;7.90;99.90
10282;DHT22;5186;59.472;18.048;2023-05-18T05:59:09;7.90;99.90
10282;DHT22;5186;59.472;18.048;2023-05-18T06:01:35;8.00;99.90
10282;DHT22;5186;59.472;18.048;2023-05-18T06:04:01;8.00;99.90
10282;DHT22;5186;59.472;18.048;2023-05-18T06:06:30;8.00;99.90
10282;DHT22;5186;59.472;18.048;2023-05-18T06:08:56;8.10;99.90
10282;DHT22;5186;59.472;18.048;2023-05-18T06:11:22;8.10;99.90
10282;DHT22;5186;59.472;18.048;2023-05-18T06:13:48;8.10;99.90
10282;DHT22;5186;59.472;18.048;2023-05-18T06:16:13;8.10;99.90
10282;DHT22;5186;59.472;18.048;2023-05-18T06:18:39;8.20;99.90
10282;DHT22;5186;59.472;18.048;2023-05-18T06:21:04;8.30;99.90
10282;DHT22;5186;59.472;18.048;2023-05-18T06:23:30;8.30;99.90
10282;DHT22;5186;59.472;18.048;2023-05-18T06:25:56;8.30;99.90
10282;DHT22;5186;59.472;18.048;2023-05-18T06:28:21;8.40;99.90
10282;DHT22;5186;59.472;18.048;2023-05-18T06:30:47;8.50;99.90
10282;DHT22;5186;59.472;18.048;2023-05-18T06:33:13;8.50;99.90
10282;DHT22;5186;59.472;18.048;2023-05-18T06:35:39;8.60;99.90
10282;DHT22;5186;59.472;18.048;2023-05-18T06:38:05;8.60;99.90
10282;DHT22;5186;59.472;18.048;2023-05-18T06:40:31;8.70;99.90
10282;DHT22;5186;59.472;18.048;2023-05-18T06:42:56;8.70;99.90
10282;DHT22;5186;59.472;18.048;2023-05-18T06:45:22;8.80;99.90
10282;DHT22;5186;59.472;18.048;2023-05-18T06:47:47;8.90;99.90
10282;DHT22;5186;59.472;18.048;2023-05-18T06:50:13;8.90;99.90
10282;DHT22;5186;59.472;18.048;2023-05-18T06:52:39;8.90;99.90
10282;DHT22;5186;59.472;18.048;2023-05-18T06:55:05;9.00;99.90
10282;DHT22;5186;59.472;18.048;2023-05-18T06:57:32;9.00;99.90
10282;DHT22;5186;59.472;18.048;2023-05-18T06:59:58;9.10;99.90
10282;DHT22;5186;59.472;18.048;2023-05-18T07:02:23;9.10;99.90
10282;DHT22;5186;59.472;18.048;2023-05-18T07:04:51;9.20;99.90
10282;DHT22;5186;59.472;18.048;2023-05-18T07:07:17;9.20;99.90
10282;DHT22;5186;59.472;18.048;2023-05-18T07:09:43;9.20;99.90
10282;DHT22;5186;59.472;18.048;2023-05-18T07:12:10;9.30;99.90
10282;DHT22;5186;59.472;18.048;2023-05-18T07:14:36;9.30;99.90
10282;DHT22;5186;59.472;18.048;2023-05-18T07:17:03;9.30;99.90
10282;DHT22;5186;59.472;18.048;2023-05-18T07:19:29;9.40;99.90
10282;DHT22;5186;59.472;18.048;2023-05-18T07:21:54;9.40;99.90
10282;DHT22;5186;59.472;18.048;2023-05-18T07:24:21;9.50;99.90
10282;DHT22;5186;59.472;18.048;2023-05-18T07:26:47;9.50;99.90
10282;DHT22;5186;59.472;18.048;2023-05-18T07:29:12;9.50;99.90
10282;DHT22;5186;59.472;18.048;2023-05-18T07:31:38;9.60;99.90
10282;DHT22;5186;59.472;18.048;2023-05-18T07:34:05;9.70;99.90
10282;DHT22;5186;59.472;18.048;2023-05-18T07:36:31;9.70;99.90
10282;DHT22;5186;59.472;18.048;2023-05-18T07:38:57;9.70;99.90
10282;DHT22;5186;59.472;18.048;2023-05-18T07:41:24;9.80;99.90
10282;DHT22;5186;59.472;18.048;2023-05-18T07:43:50;9.80;99.90
10282;DHT22;5186;59.472;18.048;2023-05-18T07:46:16;9.90;99.90
10282;DHT22;5186;59.472;18.048;2023-05-18T07:48:42;9.90;99.90
10282;DHT22;5186;59.472;18.048;2023-05-18T07:51:09;9.90;99.90
10282;DHT22;5186;59.472;18.048;2023-05-18T07:53:35;9.90;99.90
10282;DHT22;5186;59.472;18.048;2023-05-18T07:56:02;9.90;99.90
10282;DHT22;5186;59.472;18.048;2023-05-18T07:58:28;10.00;99.90
10282;DHT22;5186;59.472;18.048;2023-05-18T08:00:54;10.00;99.90
10282;DHT22;5186;59.472;18.048;2023-05-18T08:03:20;10.00;99.90
10282;DHT22;5186;59.472;18.048;2023-05-18T08:05:45;10.10;99.90
10282;DHT22;5186;59.472;18.048;2023-05-18T08:08:11;10.20;99.90
10282;DHT22;5186;59.472;18.048;2023-05-18T08:10:42;10.20;99.90
10282;DHT22;5186;59.472;18.048;2023-05-18T08:13:08;10.20;99.90
10282;DHT22;5186;59.472;18.048;2023-05-18T08:15:34;10.30;99.90
10282;DHT22;5186;59.472;18.048;2023-05-18T08:18:00;10.30;99.90
10282;DHT22;5186;59.472;18.048;2023-05-18T08:20:25;10.40;99.90
10282;DHT22;5186;59.472;18.048;2023-05-18T08:22:55;10.40;99.90
10282;DHT22;5186;59.472;18.048;2023-05-18T08:25:21;10.30;99.90
10282;DHT22;5186;59.472;18.048;2023-05-18T08:27:47;10.40;99.90
10282;DHT22;5186;59.472;18.048;2023-05-18T08:30:13;10.50;99.90
10282;DHT22;5186;59.472;18.048;2023-05-18T08:32:39;10.60;99.90
10282;DHT22;5186;59.472;18.048;2023-05-18T08:35:04;10.60;99.90
10282;DHT22;5186;59.472;18.048;2023-05-18T08:37:31;10.70;99.90
10282;DHT22;5186;59.472;18.048;2023-05-18T08:39:56;10.70;99.90
10282;DHT22;5186;59.472;18.048;2023-05-18T08:45:14;10.80;99.90
10282;DHT22;5186;59.472;18.048;2023-05-18T08:47:43;10.80;99.90
10282;DHT22;5186;59.472;18.048;2023-05-18T08:50:09;10.90;99.90
10282;DHT22;5186;59.472;18.048;2023-05-18T08:52:46;11.00;99.90
10282;DHT22;5186;59.472;18.048;2023-05-18T08:55:12;11.10;99.90
10282;DHT22;5186;59.472;18.048;2023-05-18T08:57:39;11.10;99.90
10282;DHT22;5186;59.472;18.048;2023-05-18T09:00:07;11.00;99.90
10282;DHT22;5186;59.472;18.048;2023-05-18T09:02:35;11.00;99.90
10282;DHT22;5186;59.472;18.048;2023-05-18T09:05:02;11.00;99.90
10282;DHT22;5186;59.472;18.048;2023-05-18T09:07:30;11.10;99.90
10282;DHT22;5186;59.472;18.048;2023-05-18T09:09:56;11.20;99.90
10282;DHT22;5186;59.472;18.048;2023-05-18T09:12:23;11.10;99.90
10282;DHT22;5186;59.472;18.048;2023-05-18T09:14:50;11.20;99.90
10282;DHT22;5186;59.472;18.048;2023-05-18T09:17:17;11.30;99.90
10282;DHT22;5186;59.472;18.048;2023-05-18T09:19:43;11.40;99.90
10282;DHT22;5186;59.472;18.048;2023-05-18T09:22:08;11.50;99.90
10282;DHT22;5186;59.472;18.048;2023-05-18T09:24:34;11.40;99.90
10282;DHT22;5186;59.472;18.048;2023-05-18T09:27:02;11.40;99.90
10282;DHT22;5186;59.472;18.048;2023-05-18T09:29:28;11.50;99.90
10282;DHT22;5186;59.472;18.048;2023-05-18T09:31:54;11.50;99.90
10282;DHT22;5186;59.472;18.048;2023-05-18T09:34:20;11.50;99.90
10282;DHT22;5186;59.472;18.048;2023-05-18T09:36:50;11.50;99.90
10282;DHT22;5186;59.472;18.048;2023-05-18T09:39:17;11.50;99.90
10282;DHT22;5186;59.472;18.048;2023-05-18T09:41:43;11.60;99.90
10282;DHT22;5186;59.472;18.048;2023-05-18T09:44:09;11.70;99.90
10282;DHT22;5186;59.472;18.048;2023-05-18T09:46:37;11.60;99.90
10282;DHT22;5186;59.472;18.048;2023-05-18T09:49:04;11.50;99.90
10282;DHT22;5186;59.472;18.048;2023-05-18T09:51:33;11.60;99.90
10282;DHT22;5186;59.472;18.048;2023-05-18T09:53:59;11.60;99.90
10282;DHT22;5186;59.472;18.048;2023-05-18T09:56:25;11.70;99.90
10282;DHT22;5186;59.472;18.048;2023-05-18T09:58:51;11.70;99.90
10282;DHT22;5186;59.472;18.048;2023-05-18T10:01:17;11.70;99.90
10282;DHT22;5186;59.472;18.048;2023-05-18T10:03:43;11.80;99.90
10282;DHT22;5186;59.472;18.048;2023-05-18T10:06:12;11.80;99.90
10282;DHT22;5186;59.472;18.048;2023-05-18T10:08:38;11.70;99.90
10282;DHT22;5186;59.472;18.048;2023-05-18T10:11:05;11.80;99.90
10282;DHT22;5186;59.472;18.048;2023-05-18T10:13:31;11.70;99.90
10282;DHT22;5186;59.472;18.048;2023-05-18T10:16:02;11.80;99.90
10282;DHT22;5186;59.472;18.048;2023-05-18T10:18:30;11.80;99.90
10282;DHT22;5186;59.472;18.048;2023-05-18T10:20:57;11.80;99.90
10282;DHT22;5186;59.472;18.048;2023-05-18T10:23:24;11.90;99.90
10282;DHT22;5186;59.472;18.048;2023-05-18T10:25:51;12.00;99.90
10282;DHT22;5186;59.472;18.048;2023-05-18T10:30:53;12.00;99.90
10282;DHT22;5186;59.472;18.048;2023-05-18T10:33:24;11.90;99.90
10282;DHT22;5186;59.472;18.048;2023-05-18T10:35:51;12.00;99.90
10282;DHT22;5186;59.472;18.048;2023-05-18T10:38:25;12.00;99.90
10282;DHT22;5186;59.472;18.048;2023-05-18T10:40:56;12.10;99.90
10282;DHT22;5186;59.472;18.048;2023-05-18T10:43:23;12.20;99.90
10282;DHT22;5186;59.472;18.048;2023-05-18T10:45:57;12.30;99.90
10282;DHT22;5186;59.472;18.048;2023-05-18T10:48:24;12.30;99.90
10282;DHT22;5186;59.472;18.048;2023-05-18T10:50:52;12.40;99.90
10282;DHT22;5186;59.472;18.048;2023-05-18T10:53:19;12.40;99.90
10282;DHT22;5186;59.472;18.048;2023-05-18T10:55:49;12.40;99.90
10282;DHT22;5186;59.472;18.048;2023-05-18T10:58:17;12.50;99.90
10282;DHT22;5186;59.472;18.048;2023-05-18T11:01:04;12.40;99.90
10282;DHT22;5186;59.472;18.048;2023-05-18T11:03:31;12.40;99.90
10282;DHT22;5186;59.472;18.048;2023-05-18T11:06:06;12.50;99.90
10282;DHT22;5186;59.472;18.048;2023-05-18T11:08:33;12.50;99.90
10282;DHT22;5186;59.472;18.048;2023-05-18T11:11:01;12.50;99.90
10282;DHT22;5186;59.472;18.048;2023-05-18T11:13:33;12.50;99.90
10282;DHT22;5186;59.472;18.048;2023-05-18T11:18:48;12.50;99.90
10282;DHT22;5186;59.472;18.048;2023-05-18T11:26:44;12.80;99.90
10282;DHT22;5186;59.472;18.048;2023-05-18T11:29:29;12.70;99.90
10282;DHT22;5186;59.472;18.048;2023-05-18T11:31:54;12.70;99.90
10282;DHT22;5186;59.472;18.048;2023-05-18T11:34:43;12.80;99.90
10282;DHT22;5186;59.472;18.048;2023-05-18T11:37:11;12.80;99.90
10282;DHT22;5186;59.472;18.048;2023-05-18T11:39:36;12.90;99.90
10282;DHT22;5186;59.472;18.048;2023-05-18T11:42:10;13.10;99.90
10282;DHT22;5186;59.472;18.048;2023-05-18T11:44:36;13.10;99.90
10282;DHT22;5186;59.472;18.048;2023-05-18T11:47:08;13.30;99.90
10282;DHT22;5186;59.472;18.048;2023-05-18T11:49:48;13.30;99.90
10282;DHT22;5186;59.472;18.048;2023-05-18T11:52:17;13.30;99.90
10282;DHT22;5186;59.472;18.048;2023-05-18T11:54:50;13.30;99.90
10282;DHT22;5186;59.472;18.048;2023-05-18T11:57:17;13.40;99.90
10282;DHT22;5186;59.472;18.048;2023-05-18T11:59:45;13.40;99.90
10282;DHT22;5186;59.472;18.048;2023-05-18T12:02:13;13.40;99.90
10282;DHT22;5186;59.472;18.048;2023-05-18T12:04:50;13.40;99.90
10282;DHT22;5186;59.472;18.048;2023-05-18T12:07:17;13.50;99.90
10282;DHT22;5186;59.472;18.048;2023-05-18T12:09:44;13.50;99.90
10282;DHT22;5186;59.472;18.048;2023-05-18T12:12:12;13.50;99.90
10282;DHT22;5186;59.472;18.048;2023-05-18T12:14:41;13.60;99.90
10282;DHT22;5186;59.472;18.048;2023-05-18T12:17:08;13.70;99.90
10282;DHT22;5186;59.472;18.048;2023-05-18T12:19:46;13.70;99.90
10282;DHT22;5186;59.472;18.048;2023-05-18T12:22:12;13.80;99.90
10282;DHT22;5186;59.472;18.048;2023-05-18T12:24:38;13.90;99.90
10282;DHT22;5186;59.472;18.048;2023-05-18T12:27:08;13.90;99.90
10282;DHT22;5186;59.472;18.048;2023-05-18T12:29:39;13.90;99.90
10282;DHT22;5186;59.472;18.048;2023-05-18T12:32:06;13.90;99.90
10282;DHT22;5186;59.472;18.048;2023-05-18T12:34:32;13.90;99.90
10282;DHT22;5186;59.472;18.048;2023-05-18T12:36:58;13.90;99.90
10282;DHT22;5186;59.472;18.048;2023-05-18T12:39:24;14.00;99.90
10282;DHT22;5186;59.472;18.048;2023-05-18T12:41:50;14.10;99.90
10282;DHT22;5186;59.472;18.048;2023-05-18T12:44:16;14.20;99.90
10282;DHT22;5186;59.472;18.048;2023-05-18T12:46:41;14.20;99.90
10282;DHT22;5186;59.472;18.048;2023-05-18T12:49:10;14.30;99.90
10282;DHT22;5186;59.472;18.048;2023-05-18T12:51:37;14.30;99.90
10282;DHT22;5186;59.472;18.048;2023-05-18T12:54:04;14.30;99.90
10282;DHT22;5186;59.472;18.048;2023-05-18T12:56:50;14.40;99.90
10282;DHT22;5186;59.472;18.048;2023-05-18T12:59:19;14.50;99.90
10282;DHT22;5186;59.472;18.048;2023-05-18T13:01:45;14.50;99.90
10282;DHT22;5186;59.472;18.048;2023-05-18T13:04:11;14.50;99.90
10282;DHT22;5186;59.472;18.048;2023-05-18T13:06:38;14.40;99.90
10282;DHT22;5186;59.472;18.048;2023-05-18T13:09:10;14.60;99.90
10282;DHT22;5186;59.472;18.048;2023-05-18T13:11:36;14.60;99.90
10282;DHT22;5186;59.472;18.048;2023-05-18T13:14:08;14.60;99.90
10282;DHT22;5186;59.472;18.048;2023-05-18T13:16:38;14.70;99.90
10282;DHT22;5186;59.472;18.048;2023-05-18T13:19:07;14.70;99.90
10282;DHT22;5186;59.472;18.048;2023-05-18T13:21:33;14.80;99.90
10282;DHT22;5186;59.472;18.048;2023-05-18T13:24:00;14.80;99.90
10282;DHT22;5186;59.472;18.048;2023-05-18T13:26:26;14.90;99.90
10282;DHT22;5186;59.472;18.048;2023-05-18T13:28:53;14.90;99.90
10282;DHT22;5186;59.472;18.048;2023-05-18T13:31:19;14.90;99.90
10282;DHT22;5186;59.472;18.048;2023-05-18T13:33:45;15.00;99.90
10282;DHT22;5186;59.472;18.048;2023-05-18T13:36:12;15.00;99.90
10282;DHT22;5186;59.472;18.048;2023-05-18T13:38:38;15.00;99.90
10282;DHT22;5186;59.472;18.048;2023-05-18T13:41:04;15.00;99.90
10282;DHT22;5186;59.472;18.048;2023-05-18T13:43:32;15.10;99.90
10282;DHT22;5186;59.472;18.048;2023-05-18T13:45:58;15.20;99.90
10282;DHT22;5186;59.472;18.048;2023-05-18T13:48:24;15.20;99.90
10282;DHT22;5186;59.472;18.048;2023-05-18T13:50:52;15.20;99.90
10282;DHT22;5186;59.472;18.048;2023-05-18T13:53:18;15.20;99.90
10282;DHT22;5186;59.472;18.048;2023-05-18T13:55:43;15.20;99.90
10282;DHT22;5186;59.472;18.048;2023-05-18T13:58:09;15.30;99.90
10282;DHT22;5186;59.472;18.048;2023-05-18T14:00:34;15.40;99.90
10282;DHT22;5186;59.472;18.048;2023-05-18T14:03:01;15.30;99.90
10282;DHT22;5186;59.472;18.048;2023-05-18T14:05:27;15.40;99.90
10282;DHT22;5186;59.472;18.048;2023-05-18T14:07:53;15.40;99.90
10282;DHT22;5186;59.472;18.048;2023-05-18T14:10:19;15.50;99.90
10282;DHT22;5186;59.472;18.048;2023-05-18T14:12:45;15.50;99.90
10282;DHT22;5186;59.472;18.048;2023-05-18T14:15:11;15.50;99.90
10282;DHT22;5186;59.472;18.048;2023-05-18T14:17:40;15.60;99.90
10282;DHT22;5186;59.472;18.048;2023-05-18T14:20:07;15.60;99.90
10282;DHT22;5186;59.472;18.048;2023-05-18T14:22:32;15.70;99.90
10282;DHT22;5186;59.472;18.048;2023-05-18T14:24:58;15.80;99.90
10282;DHT22;5186;59.472;18.048;2023-05-18T14:27:25;15.80;99.90
10282;DHT22;5186;59.472;18.048;2023-05-18T14:29:51;15.80;99.90
10282;DHT22;5186;59.472;18.048;2023-05-18T14:32:17;15.70;99.90
10282;DHT22;5186;59.472;18.048;2023-05-18T14:34:45;15.80;99.90
10282;DHT22;5186;59.472;18.048;2023-05-18T14:37:10;15.90;99.90
10282;DHT22;5186;59.472;18.048;2023-05-18T14:39:36;15.80;99.90
10282;DHT22;5186;59.472;18.048;2023-05-18T14:42:02;15.80;99.90
10282;DHT22;5186;59.472;18.048;2023-05-18T14:44:28;15.90;99.90
10282;DHT22;5186;59.472;18.048;2023-05-18T14:46:54;15.90;99.90
10282;DHT22;5186;59.472;18.048;2023-05-18T14:49:20;16.00;99.90
10282;DHT22;5186;59.472;18.048;2023-05-18T14:51:45;16.10;99.90
10282;DHT22;5186;59.472;18.048;2023-05-18T14:54:11;16.10;99.90
10282;DHT22;5186;59.472;18.048;2023-05-18T14:56:38;16.10;99.90
10282;DHT22;5186;59.472;18.048;2023-05-18T14:59:03;16.10;99.90
10282;DHT22;5186;59.472;18.048;2023-05-18T15:01:29;16.20;99.90
10282;DHT22;5186;59.472;18.048;2023-05-18T15:03:55;16.20;99.90
10282;DHT22;5186;59.472;18.048;2023-05-18T15:06:21;16.20;99.90
10282;DHT22;5186;59.472;18.048;2023-05-18T15:08:46;16.30;99.90
10282;DHT22;5186;59.472;18.048;2023-05-18T15:11:12;16.30;99.90
10282;DHT22;5186;59.472;18.048;2023-05-18T15:13:38;16.30;99.90
10282;DHT22;5186;59.472;18.048;2023-05-18T15:16:04;16.30;99.90
10282;DHT22;5186;59.472;18.048;2023-05-18T15:18:30;16.20;99.90
10282;DHT22;5186;59.472;18.048;2023-05-18T15:20:56;16.20;99.90
10282;DHT22;5186;59.472;18.048;2023-05-18T15:23:22;16.20;99.90
10282;DHT22;5186;59.472;18.048;2023-05-18T15:25:49;16.20;99.90
10282;DHT22;5186;59.472;18.048;2023-05-18T15:28:16;16.30;99.90
10282;DHT22;5186;59.472;18.048;2023-05-18T15:30:41;16.30;99.90
10282;DHT22;5186;59.472;18.048;2023-05-18T15:33:07;16.20;99.90
10282;DHT22;5186;59.472;18.048;2023-05-18T15:35:32;16.20;99.90
10282;DHT22;5186;59.472;18.048;2023-05-18T15:38:00;16.30;99.90
10282;DHT22;5186;59.472;18.048;2023-05-18T15:40:26;16.30;99.90
10282;DHT22;5186;59.472;18.048;2023-05-18T15:42:52;16.20;99.90
10282;DHT22;5186;59.472;18.048;2023-05-18T15:45:17;16.30;99.90
10282;DHT22;5186;59.472;18.048;2023-05-18T15:47:43;16.30;99.90
10282;DHT22;5186;59.472;18.048;2023-05-18T15:50:09;16.30;99.90
10282;DHT22;5186;59.472;18.048;2023-05-18T15:52:35;16.30;99.90
10282;DHT22;5186;59.472;18.048;2023-05-18T15:55:00;16.30;99.90
10282;DHT22;5186;59.472;18.048;2023-05-18T15:57:26;16.30;99.90
10282;DHT22;5186;59.472;18.048;2023-05-18T15:59:52;16.40;99.90
10282;DHT22;5186;59.472;18.048;2023-05-18T16:02:17;16.50;99.90